createdAt,value
2022-08-07T00:01:42.960Z,20.53
2022-08-07T00:03:51.331Z,20.53
2022-08-07T00:06:17.875Z,20.54
2022-08-07T00:08:55.952Z,20.55
2022-08-07T00:11:29.905Z,20.55
2022-08-07T00:13:59.942Z,20.55
2022-08-07T00:16:28.736Z,20.54
2022-08-07T00:18:55.352Z,20.55
2022-08-07T00:21:56.859Z,20.54
2022-08-07T00:24:09.185Z,20.53
2022-08-07T00:26:58.754Z,20.53
2022-08-07T00:29:23.298Z,20.51
2022-08-07T00:31:50.097Z,20.50
2022-08-07T00:34:18.077Z,20.49
2022-08-07T00:36:48.353Z,20.50
2022-08-07T00:39:17.007Z,20.51
2022-08-07T00:41:53.569Z,20.51
2022-08-07T00:44:28.597Z,20.52
2022-08-07T00:46:55.239Z,20.50
2022-08-07T00:50:17.130Z,20.46
2022-08-07T00:52:09.844Z,20.44
2022-08-07T00:54:36.523Z,20.32
2022-08-07T00:57:07.871Z,20.40
2022-08-07T00:59:36.659Z,20.41
2022-08-07T01:02:13.942Z,20.38
2022-08-07T01:04:43.449Z,20.38
2022-08-07T01:07:12.609Z,20.37
2022-08-07T01:10:04.386Z,20.36
2022-08-07T01:12:30.068Z,20.35
2022-08-07T01:15:01.063Z,20.36
2022-08-07T01:17:30.202Z,20.37
2022-08-07T01:20:07.949Z,20.35
2022-08-07T01:22:37.036Z,20.34
2022-08-07T01:25:54.787Z,20.35
2022-08-07T01:28:02.521Z,20.34
2022-08-07T01:30:30.387Z,20.36
2022-08-07T01:32:58.335Z,20.33
2022-08-07T01:35:53.536Z,20.31
2022-08-07T01:38:14.251Z,20.27
2022-08-07T01:40:57.402Z,20.24
2022-08-07T01:43:26.156Z,20.22
2022-08-07T01:46:02.446Z,20.18
2022-08-07T01:48:30.742Z,20.06
2022-08-07T01:52:00.999Z,20.13
2022-08-07T01:54:12.172Z,20.15
2022-08-07T01:56:51.759Z,20.14
2022-08-07T01:59:30.899Z,20.13
2022-08-07T02:02:07.185Z,20.09
2022-08-07T02:04:55.608Z,20.09
2022-08-07T02:07:44.969Z,20.07
2022-08-07T02:10:18.981Z,20.04
2022-08-07T02:12:50.031Z,20.01
2022-08-07T02:15:26.331Z,19.98
2022-08-07T02:17:56.510Z,19.97
2022-08-07T02:20:24.594Z,19.95
2022-08-07T02:22:59.602Z,19.96
2022-08-07T02:26:10.081Z,19.93
2022-08-07T02:28:25.607Z,19.91
2022-08-07T02:31:18.867Z,19.92
2022-08-07T02:34:03.242Z,19.92
2022-08-07T02:36:34.575Z,19.92
2022-08-07T02:39:16.747Z,19.96
2022-08-07T02:41:50.673Z,19.84
2022-08-07T02:44:27.696Z,19.88
2022-08-07T02:47:05.176Z,19.85
2022-08-07T02:49:58.492Z,19.83
2022-08-07T02:52:33.906Z,19.76
2022-08-07T02:55:27.736Z,19.75
2022-08-07T02:57:56.762Z,19.73
2022-08-07T03:00:28.102Z,19.70
2022-08-07T03:02:58.244Z,19.67
2022-08-07T03:05:24.958Z,19.65
2022-08-07T03:08:07.438Z,19.64
2022-08-07T03:10:46.321Z,19.63
2022-08-07T03:13:19.798Z,19.63
2022-08-07T03:15:58.210Z,19.63
2022-08-07T03:18:34.679Z,19.64
2022-08-07T03:21:05.069Z,19.63
2022-08-07T03:24:19.283Z,19.62
2022-08-07T03:26:29.902Z,19.60
2022-08-07T03:29:00.510Z,19.61
2022-08-07T03:31:42.452Z,19.60
2022-08-07T03:34:18.905Z,19.60
2022-08-07T03:36:53.768Z,19.58
2022-08-07T03:39:46.276Z,19.57
2022-08-07T03:42:11.551Z,19.53
2022-08-07T03:44:40.871Z,19.53
2022-08-07T03:47:11.494Z,19.52
2022-08-07T03:49:52.392Z,19.50
2022-08-07T03:52:27.252Z,19.49
2022-08-07T03:55:06.452Z,19.48
2022-08-07T03:58:35.151Z,19.49
2022-08-07T04:00:29.147Z,19.48
2022-08-07T04:02:57.028Z,19.48
2022-08-07T04:05:40.769Z,19.48
2022-08-07T04:08:16.113Z,19.44
2022-08-07T04:10:54.290Z,19.39
2022-08-07T04:14:11.026Z,19.35
2022-08-07T04:16:31.454Z,19.34
2022-08-07T04:19:04.114Z,19.32
2022-08-07T04:21:39.693Z,19.32
2022-08-07T04:24:33.722Z,19.34
2022-08-07T04:27:05.117Z,19.36
2022-08-07T04:29:40.540Z,19.41
2022-08-07T04:32:34.051Z,19.42
2022-08-07T04:35:06.251Z,19.42
2022-08-07T04:38:00.855Z,19.44
2022-08-07T04:40:29.803Z,19.47
2022-08-07T04:43:01.633Z,19.47
2022-08-07T04:45:57.609Z,19.45
2022-08-07T04:48:40.180Z,19.47
2022-08-07T04:51:28.415Z,19.49
2022-08-07T04:54:30.288Z,19.47
2022-08-07T04:58:12.862Z,19.48
2022-08-07T05:00:17.311Z,19.48
2022-08-07T05:04:00.334Z,19.47
2022-08-07T05:06:28.295Z,19.51
2022-08-07T05:09:46.651Z,19.53
2022-08-07T05:12:26.764Z,19.60
2022-08-07T05:15:05.645Z,19.68
2022-08-07T05:17:52.391Z,19.75
2022-08-07T05:20:27.261Z,19.80
2022-08-07T05:23:01.974Z,19.89
2022-08-07T05:25:36.642Z,19.93
2022-08-07T05:28:23.302Z,19.96
2022-08-07T05:30:57.919Z,20.01
2022-08-07T05:33:28.839Z,20.03
2022-08-07T05:35:58.078Z,20.04
2022-08-07T05:39:01.498Z,20.03
2022-08-07T05:41:16.727Z,20.04
2022-08-07T05:44:12.698Z,20.09
2022-08-07T05:46:45.451Z,20.17
2022-08-07T05:49:22.675Z,20.12
2022-08-07T05:51:50.824Z,20.24
2022-08-07T05:54:31.042Z,20.30
2022-08-07T05:57:09.453Z,20.34
2022-08-07T05:59:55.918Z,20.39
2022-08-07T06:02:29.572Z,20.48
2022-08-07T06:05:15.782Z,20.51
2022-08-07T06:08:13.204Z,20.56
2022-08-07T06:10:37.225Z,20.60
2022-08-07T06:13:05.751Z,20.63
2022-08-07T06:15:42.264Z,20.68
2022-08-07T06:18:13.911Z,20.69
2022-08-07T06:20:50.350Z,20.69
2022-08-07T06:24:37.748Z,20.69
2022-08-07T06:26:20.168Z,20.72
2022-08-07T06:28:52.804Z,20.71
2022-08-07T06:31:20.987Z,20.69
2022-08-07T06:33:51.862Z,20.67
2022-08-07T06:36:34.730Z,20.68
2022-08-07T06:40:13.167Z,20.70
2022-08-07T06:42:02.869Z,20.70
2022-08-07T06:45:01.830Z,20.65
2022-08-07T06:47:28.742Z,20.64
2022-08-07T06:50:16.293Z,20.62
2022-08-07T06:52:53.179Z,20.65
2022-08-07T06:55:32.878Z,20.63
2022-08-07T06:58:14.414Z,20.67
2022-08-07T07:00:53.739Z,20.71
2022-08-07T07:03:39.699Z,20.76
2022-08-07T07:06:11.267Z,20.76
2022-08-07T07:08:39.825Z,20.72
2022-08-07T07:12:09.902Z,20.92
2022-08-07T07:14:02.451Z,21.02
2022-08-07T07:16:39.166Z,21.15
2022-08-07T07:19:55.071Z,21.27
2022-08-07T07:22:32.328Z,21.34
2022-08-07T07:25:14.491Z,21.41
2022-08-07T07:28:02.403Z,21.48
2022-08-07T07:30:38.393Z,21.54
2022-08-07T07:33:09.044Z,21.58
2022-08-07T07:35:44.026Z,21.60
2022-08-07T07:38:28.842Z,21.62
2022-08-07T07:41:02.174Z,21.66
2022-08-07T07:43:47.907Z,21.70
2022-08-07T07:46:37.765Z,21.74
2022-08-07T07:49:09.155Z,21.78
2022-08-07T07:51:58.112Z,21.78
2022-08-07T07:54:26.679Z,21.78
2022-08-07T07:56:55.115Z,21.76
2022-08-07T07:59:52.828Z,21.78
2022-08-07T08:02:34.149Z,21.81
2022-08-07T08:05:14.132Z,21.83
2022-08-07T08:07:59.726Z,21.83
2022-08-07T08:10:35.622Z,21.86
2022-08-07T08:13:10.582Z,21.87
2022-08-07T08:15:58.360Z,21.89
2022-08-07T08:18:28.962Z,21.92
2022-08-07T08:20:59.713Z,22.00
2022-08-07T08:23:30.190Z,22.04
2022-08-07T08:26:06.933Z,22.07
2022-08-07T08:28:39.223Z,22.11
2022-08-07T08:31:58.354Z,22.17
2022-08-07T08:34:12.397Z,22.20
2022-08-07T08:36:56.248Z,22.24
2022-08-07T08:39:39.611Z,22.30
2022-08-07T08:42:32.042Z,22.25
2022-08-07T08:45:21.292Z,22.25
2022-08-07T08:48:16.940Z,22.34
2022-08-07T08:51:03.379Z,22.31
2022-08-07T08:53:57.437Z,22.29
2022-08-07T08:56:48.751Z,22.32
2022-08-07T08:59:41.723Z,22.36
2022-08-07T09:02:37.644Z,22.48
2022-08-07T09:05:15.207Z,22.57
2022-08-07T09:07:58.287Z,22.67
2022-08-07T09:10:44.108Z,22.70
2022-08-07T09:13:17.048Z,22.76
2022-08-07T09:16:21.525Z,22.83
2022-08-07T09:19:51.836Z,22.88
2022-08-07T09:24:31.902Z,22.99
2022-08-07T09:26:01.816Z,23.07
2022-08-07T09:30:01.792Z,23.08
2022-08-07T09:31:50.613Z,23.11
2022-08-07T09:34:36.149Z,23.12
2022-08-07T09:37:20.421Z,23.20
2022-08-07T09:40:17.860Z,23.23
2022-08-07T09:43:08.255Z,23.28
2022-08-07T09:47:24.494Z,23.28
2022-08-07T09:48:56.033Z,23.27
2022-08-07T09:52:16.435Z,23.30
2022-08-07T09:55:29.384Z,23.30
2022-08-07T09:58:51.402Z,23.45
2022-08-07T10:01:50.389Z,23.57
2022-08-07T10:05:13.910Z,23.59
2022-08-07T10:07:55.678Z,23.78
2022-08-07T10:10:43.641Z,23.89
2022-08-07T10:14:00.612Z,24.02
2022-08-07T10:16:46.927Z,24.21
2022-08-07T10:19:47.075Z,24.41
2022-08-07T10:22:50.984Z,24.53
2022-08-07T10:25:42.595Z,24.77
2022-08-07T10:28:34.439Z,24.85
2022-08-07T10:31:38.753Z,24.97
2022-08-07T10:34:38.949Z,25.10
2022-08-07T10:38:00.597Z,25.21
2022-08-07T10:40:33.495Z,25.35
2022-08-07T10:43:29.890Z,25.43
2022-08-07T10:46:09.224Z,25.56
2022-08-07T10:49:02.369Z,25.69
2022-08-07T10:51:57.743Z,25.67
2022-08-07T10:54:41.334Z,25.66
2022-08-07T10:57:45.925Z,25.57
2022-08-07T11:00:39.566Z,25.56
2022-08-07T11:03:23.492Z,25.56
2022-08-07T11:06:22.018Z,25.53
2022-08-07T11:08:56.409Z,25.55
2022-08-07T11:11:39.661Z,25.55
2022-08-07T11:14:43.772Z,25.54
2022-08-07T11:17:23.304Z,25.54
2022-08-07T11:20:43.108Z,25.58
2022-08-07T11:23:36.375Z,25.64
2022-08-07T11:26:25.117Z,25.68
2022-08-07T11:29:01.712Z,25.67
2022-08-07T11:31:41.691Z,25.75
2022-08-07T11:34:29.638Z,25.86
2022-08-07T11:37:11.772Z,25.89
2022-08-07T11:40:00.427Z,25.91
2022-08-07T11:42:49.587Z,25.85
2022-08-07T11:45:35.522Z,25.92
2022-08-07T11:48:30.196Z,25.85
2022-08-07T11:51:35.082Z,25.89
2022-08-07T11:54:30.948Z,25.85
2022-08-07T11:57:52.365Z,25.87
2022-08-07T12:00:19.263Z,25.86
2022-08-07T12:02:53.539Z,25.86
2022-08-07T12:05:49.059Z,25.91
2022-08-07T12:08:25.961Z,25.95
2022-08-07T12:11:21.323Z,26.05
2022-08-07T12:13:58.081Z,26.15
2022-08-07T12:16:32.811Z,26.31
2022-08-07T12:19:22.105Z,26.37
2022-08-07T12:22:37.604Z,26.42
2022-08-07T12:26:22.201Z,26.52
2022-08-07T12:28:31.222Z,26.64
2022-08-07T12:31:05.577Z,26.67
2022-08-07T12:33:56.534Z,26.59
2022-08-07T12:36:32.901Z,26.82
2022-08-07T12:39:42.916Z,26.85
2022-08-07T12:41:54.503Z,26.88
2022-08-07T12:44:24.522Z,26.85
2022-08-07T12:47:14.315Z,26.74
2022-08-07T12:50:39.172Z,26.75
2022-08-07T12:53:22.424Z,26.73
2022-08-07T12:56:03.954Z,26.71
2022-08-07T12:58:37.382Z,26.70
2022-08-07T13:01:06.012Z,26.72
2022-08-07T13:04:09.794Z,26.74
2022-08-07T13:08:11.601Z,26.82
2022-08-07T13:10:28.361Z,26.92
2022-08-07T13:13:47.883Z,27.03
2022-08-07T13:16:21.713Z,27.13
2022-08-07T13:19:34.817Z,27.14
2022-08-07T13:22:20.008Z,27.03
2022-08-07T13:24:56.340Z,27.13
2022-08-07T13:28:11.560Z,27.17
2022-08-07T13:30:40.837Z,27.28
2022-08-07T13:34:33.415Z,27.34
2022-08-07T13:36:25.700Z,27.37
2022-08-07T13:39:49.402Z,27.42
2022-08-07T13:42:11.012Z,27.51
2022-08-07T13:44:39.578Z,27.58
2022-08-07T13:47:15.758Z,27.66
2022-08-07T13:50:34.440Z,27.77
2022-08-07T13:52:43.210Z,27.87
2022-08-07T13:55:19.666Z,27.93
2022-08-07T13:58:04.459Z,27.95
2022-08-07T14:00:50.526Z,28.01
2022-08-07T14:03:41.250Z,28.14
2022-08-07T14:06:12.829Z,28.17
2022-08-07T14:08:43.659Z,28.19
2022-08-07T14:11:18.925Z,28.29
2022-08-07T14:13:52.437Z,28.33
2022-08-07T14:16:31.316Z,28.37
2022-08-07T14:19:01.654Z,28.42
2022-08-07T14:22:03.261Z,28.42
2022-08-07T14:24:37.456Z,28.50
2022-08-07T14:28:09.372Z,28.54
2022-08-07T14:30:11.212Z,28.62
2022-08-07T14:32:56.901Z,28.64
2022-08-07T14:35:43.071Z,28.76
2022-08-07T14:38:30.195Z,28.81
2022-08-07T14:41:05.610Z,28.77
2022-08-07T14:46:33.168Z,28.71
2022-08-07T14:52:04.226Z,28.83
2022-08-07T14:54:41.693Z,28.84
2022-08-07T14:57:15.059Z,28.94
2022-08-07T15:05:23.457Z,29.04
2022-08-07T15:07:52.718Z,29.07
2022-08-07T15:13:19.810Z,29.09
2022-08-07T15:15:52.528Z,29.13
2022-08-07T15:18:34.824Z,29.14
2022-08-07T15:21:44.429Z,29.15
2022-08-07T15:25:12.892Z,29.12
2022-08-07T15:27:08.398Z,29.10
2022-08-07T15:30:04.879Z,29.13
2022-08-07T15:32:40.094Z,29.12
2022-08-07T15:36:00.356Z,29.03
2022-08-07T15:38:17.642Z,28.93
2022-08-07T15:44:03.242Z,28.62
2022-08-07T15:46:38.531Z,28.55
2022-08-07T15:49:19.048Z,28.43
2022-08-07T15:54:27.272Z,28.23
2022-08-07T15:56:59.833Z,28.15
2022-08-07T15:59:39.076Z,28.10
2022-08-07T16:02:08.507Z,28.08
2022-08-07T16:04:37.858Z,28.11
2022-08-07T16:08:33.089Z,28.05
2022-08-07T16:10:00.321Z,28.05
2022-08-07T16:13:01.142Z,27.93
2022-08-07T16:15:57.345Z,27.79
2022-08-07T16:18:50.476Z,27.71
2022-08-07T16:22:04.112Z,27.55
2022-08-07T16:24:52.639Z,27.45
2022-08-07T16:27:46.607Z,27.30
2022-08-07T16:30:31.136Z,27.21
2022-08-07T16:34:01.771Z,27.10
2022-08-07T16:37:02.096Z,26.93
2022-08-07T16:40:03.015Z,26.74
2022-08-07T16:43:01.534Z,26.63
2022-08-07T16:46:20.949Z,26.59
2022-08-07T16:50:20.822Z,26.42
2022-08-07T16:52:51.685Z,26.31
2022-08-07T16:55:29.090Z,26.16
2022-08-07T16:59:15.240Z,26.08
2022-08-07T17:01:41.630Z,26.01
2022-08-07T17:04:24.766Z,25.94
2022-08-07T17:07:10.421Z,25.94
2022-08-07T17:10:07.353Z,25.83
2022-08-07T17:12:54.856Z,25.70
2022-08-07T17:15:43.851Z,25.66
2022-08-07T17:18:46.252Z,25.57
2022-08-07T17:21:22.489Z,25.52
2022-08-07T17:23:49.805Z,25.41
2022-08-07T17:26:30.747Z,25.31
2022-08-07T17:30:13.890Z,25.20
2022-08-07T17:32:30.618Z,25.14
2022-08-07T17:35:49.578Z,25.10
2022-08-07T17:38:32.090Z,25.04
2022-08-07T17:42:03.097Z,24.97
2022-08-07T17:44:33.838Z,24.93
2022-08-07T17:47:41.960Z,24.89
2022-08-07T17:50:36.406Z,24.80
2022-08-07T17:53:59.998Z,24.79
2022-08-07T17:56:57.586Z,24.69
2022-08-07T17:59:43.480Z,24.67
2022-08-07T18:02:31.640Z,24.65
2022-08-07T18:05:25.890Z,24.58
2022-08-07T18:08:32.690Z,24.54
2022-08-07T18:12:16.663Z,24.51
2022-08-07T18:14:16.507Z,24.45
2022-08-07T18:16:59.663Z,24.42
2022-08-07T18:21:10.479Z,24.40
2022-08-07T18:22:36.930Z,24.35
2022-08-07T18:25:19.309Z,24.33
2022-08-07T18:27:53.940Z,24.27
2022-08-07T18:30:36.790Z,24.23
2022-08-07T18:33:55.382Z,24.16
2022-08-07T18:36:39.290Z,24.09
2022-08-07T18:40:07.921Z,24.03
2022-08-07T18:42:28.614Z,23.99
2022-08-07T18:45:39.905Z,23.92
2022-08-07T18:50:05.016Z,23.86
2022-08-07T18:52:35.222Z,23.81
2022-08-07T18:54:41.407Z,23.74
2022-08-07T18:57:42.560Z,23.68
2022-08-07T19:00:42.317Z,23.64
2022-08-07T19:03:38.072Z,23.63
2022-08-07T19:06:16.502Z,23.59
2022-08-07T19:08:55.502Z,23.53
2022-08-07T19:11:39.900Z,23.50
2022-08-07T19:15:03.840Z,23.46
2022-08-07T19:18:11.606Z,23.42
2022-08-07T19:21:09.158Z,23.39
2022-08-07T19:23:58.961Z,23.34
2022-08-07T19:26:43.453Z,23.30
2022-08-07T19:30:58.781Z,23.26
2022-08-07T19:32:18.046Z,23.20
2022-08-07T19:35:13.513Z,23.12
2022-08-07T19:37:57.151Z,23.10
2022-08-07T19:40:31.423Z,23.05
2022-08-07T19:43:21.832Z,22.98
2022-08-07T19:46:08.026Z,22.92
2022-08-07T19:48:53.636Z,22.89
2022-08-07T19:51:50.551Z,22.85
2022-08-07T19:54:34.783Z,22.78
2022-08-07T19:58:04.126Z,22.71
2022-08-07T19:59:53.511Z,22.65
2022-08-07T20:02:56.414Z,22.56
2022-08-07T20:05:28.175Z,22.52
2022-08-07T20:08:02.093Z,22.44
2022-08-07T20:10:36.106Z,22.38
2022-08-07T20:13:26.910Z,22.30
2022-08-07T20:16:01.000Z,22.24
2022-08-07T20:18:33.024Z,22.17
2022-08-07T20:21:03.812Z,22.09
2022-08-07T20:23:53.486Z,22.01
2022-08-07T20:26:32.212Z,21.93
2022-08-07T20:29:00.747Z,21.86
2022-08-07T20:31:41.887Z,21.79
2022-08-07T20:34:09.823Z,21.70
2022-08-07T20:36:39.564Z,21.63
2022-08-07T20:39:30.456Z,21.55
2022-08-07T20:41:54.766Z,21.46
2022-08-07T20:44:29.839Z,21.37
2022-08-07T20:47:05.858Z,21.31
2022-08-07T20:50:00.919Z,21.24
2022-08-07T20:52:51.795Z,21.15
2022-08-07T20:55:17.235Z,21.11
2022-08-07T20:58:03.567Z,21.07
2022-08-07T21:00:42.638Z,21.04
2022-08-07T21:03:14.127Z,21.01
2022-08-07T21:05:54.502Z,20.99
2022-08-07T21:08:38.015Z,20.97
2022-08-07T21:11:10.863Z,20.95
2022-08-07T21:14:16.339Z,20.93
2022-08-07T21:16:37.798Z,20.90
2022-08-07T21:19:51.743Z,20.86
2022-08-07T21:22:19.948Z,20.82
2022-08-07T21:24:48.068Z,20.79
2022-08-07T21:27:39.610Z,20.76
2022-08-07T21:30:16.341Z,20.62
2022-08-07T21:33:11.819Z,20.68
2022-08-07T21:36:06.538Z,20.65
2022-08-07T21:38:50.064Z,20.61
2022-08-07T21:41:38.322Z,20.59
2022-08-07T21:44:30.146Z,20.55
2022-08-07T21:47:17.182Z,20.49
2022-08-07T21:50:02.195Z,20.44
2022-08-07T21:52:48.083Z,20.40
2022-08-07T21:55:29.932Z,20.36
2022-08-07T21:58:32.213Z,20.30
2022-08-07T22:01:13.643Z,20.28
2022-08-07T22:03:58.844Z,20.24
2022-08-07T22:06:52.599Z,20.18
2022-08-07T22:09:20.933Z,20.16
2022-08-07T22:12:05.765Z,20.14
2022-08-07T22:15:00.079Z,20.09
2022-08-07T22:17:36.042Z,20.06
2022-08-07T22:20:23.737Z,20.01
2022-08-07T22:23:03.302Z,19.90
2022-08-07T22:25:58.943Z,19.96
2022-08-07T22:28:48.359Z,19.92
2022-08-07T22:31:56.435Z,19.91
2022-08-07T22:34:35.597Z,19.89
2022-08-07T22:38:01.930Z,19.87
2022-08-07T22:40:29.687Z,19.85
2022-08-07T22:43:03.015Z,19.86
2022-08-07T22:46:21.902Z,19.83
2022-08-07T22:49:09.687Z,19.81
2022-08-07T22:52:12.129Z,19.79
2022-08-07T22:55:17.276Z,19.77
2022-08-07T22:58:16.735Z,19.76
2022-08-07T23:01:13.026Z,19.74
2022-08-07T23:03:57.994Z,19.70
2022-08-07T23:06:53.943Z,19.68
2022-08-07T23:10:04.947Z,19.65
2022-08-07T23:12:42.573Z,19.59
2022-08-07T23:15:22.058Z,19.56
2022-08-07T23:18:23.729Z,19.50
2022-08-07T23:21:09.450Z,19.47
2022-08-07T23:24:04.178Z,19.39
2022-08-07T23:26:55.109Z,19.34
2022-08-07T23:30:38.666Z,19.28
2022-08-07T23:34:22.103Z,19.24
2022-08-07T23:35:43.419Z,19.20
2022-08-07T23:38:36.691Z,19.17
2022-08-07T23:41:21.002Z,19.13
2022-08-07T23:44:12.757Z,19.07
2022-08-07T23:47:03.161Z,19.05
2022-08-07T23:50:06.959Z,18.98
2022-08-07T23:53:11.709Z,18.97
2022-08-07T23:55:55.877Z,18.91
2022-08-07T23:58:36.304Z,18.90
